Flight Track Log - Related Links

Times and Time Zones

All times are in EST time to prevent confusion due to time zone crossing. See the AFL150 flight status page for this flight to view local times or setup timezone preferences in your user account.


Time Position Orientation Groundspeed Altitude Reporting Facility
EST Latitude Longitude Course Direction KTS MPH feet Rate Location/Type
Mon 09:43:00 AM 58.9955 -38.2021 307° West  Level Estimated
Mon 09:44:00 AM 58.9368 -38.4023 240° Southwest  Level Estimated
Mon 09:45:00 AM 58.8777 -38.6017 240° Southwest  Level Estimated
Mon 09:46:00 AM 58.8183 -38.8005 240° Southwest  Level Estimated
Mon 09:47:00 AM 58.7586 -38.9986 240° Southwest  Level Estimated
Mon 09:48:00 AM 58.6986 -39.1960 240° Southwest  Level Estimated
Mon 09:49:00 AM 58.6382 -39.3927 240° Southwest  Level Estimated
Mon 09:50:00 AM 58.5776 -39.5888 239° Southwest  Level Estimated
Mon 09:51:00 AM 58.5167 -39.7842 239° Southwest  Level Estimated
Mon 09:52:00 AM 58.4555 -39.9789 239° Southwest  Level Estimated
Mon 09:53:00 AM 58.3941 -40.1729 239° Southwest  Level Estimated
Mon 09:54:00 AM 58.3323 -40.3662 239° Southwest  Level Estimated
Mon 09:55:00 AM 58.2702 -40.5588 239° Southwest  Level Estimated
Mon 09:56:00 AM 58.2078 -40.7508 238° Southwest  Level Estimated
Mon 09:57:00 AM 58.1452 -40.9421 238° Southwest  Level Estimated
Mon 09:58:00 AM 58.0822 -41.1328 238° Southwest  Level Estimated
Mon 09:59:00 AM 58.0190 -41.3227 238° Southwest  Level Estimated
Mon 10:00:00 AM 57.9555 -41.5120 238° Southwest  Level Estimated
Mon 10:01:00 AM 57.8917 -41.7006 238° Southwest  Level Estimated
Mon 10:02:00 AM 57.8277 -41.8886 237° Southwest  Level Estimated
Mon 10:03:00 AM 57.7633 -42.0759 237° Southwest  Level Estimated
Mon 10:04:00 AM 57.6987 -42.2625 237° Southwest  Level Estimated
Mon 10:05:00 AM 57.6338 -42.4484 237° Southwest  Level Estimated
Mon 10:06:00 AM 57.5687 -42.6337 237° Southwest  Level Estimated
Mon 10:07:00 AM 57.5032 -42.8183 237° Southwest  Level Estimated
Mon 10:08:00 AM 57.4375 -43.0023 236° Southwest  Level Estimated
Mon 10:09:00 AM 57.3716 -43.1856 236° Southwest  Level Estimated
Mon 10:10:00 AM 57.3053 -43.3682 236° Southwest  Level Estimated
Mon 10:11:00 AM 57.2388 -43.5502 236° Southwest  Level Estimated
Mon 10:12:00 AM 57.1721 -43.7315 236° Southwest  Level Estimated
Mon 10:13:00 AM 57.1051 -43.9122 236° Southwest  Level Estimated
Mon 10:14:00 AM 57.0378 -44.0922 236° Southwest  Level Estimated
Mon 10:15:00 AM 56.9702 -44.2716 235° Southwest  Level Estimated
Mon 10:16:00 AM 56.9025 -44.4503 235° Southwest  Level Estimated
Mon 10:17:00 AM 56.8344 -44.6283 235° Southwest  Level Estimated
Mon 10:18:00 AM 56.7661 -44.8058 235° Southwest  Level Estimated
Mon 10:19:00 AM 56.6976 -44.9825 235° Southwest  Level Estimated
Mon 10:20:00 AM 56.6288 -45.1587 235° Southwest  Level Estimated
Mon 10:21:00 AM 56.5597 -45.3341 235° Southwest  Level Estimated
Mon 10:22:00 AM 56.4904 -45.5090 234° Southwest  Level Estimated
Mon 10:23:00 AM 56.4209 -45.6832 234° Southwest  Level Estimated
Mon 10:24:00 AM 56.3511 -45.8568 234° Southwest  Level Estimated
Mon 10:25:00 AM 56.2811 -46.0297 234° Southwest  Level Estimated
Mon 10:26:00 AM 56.2108 -46.2020 234° Southwest  Level Estimated
Mon 10:27:00 AM 56.1404 -46.3737 234° Southwest  Level Estimated
Mon 10:28:00 AM 56.0696 -46.5447 234° Southwest  Level Estimated
Mon 10:29:00 AM 55.9986 -46.7151 233° Southwest  Level Estimated
Mon 10:30:00 AM 55.9274 -46.8849 233° Southwest  Level Estimated
Mon 10:31:00 AM 55.8560 -47.0541 233° Southwest  Level Estimated
Mon 10:32:00 AM 55.7843 -47.2226 233° Southwest  Level Estimated
Mon 10:33:00 AM 55.7124 -47.3905 233° Southwest  Level Estimated
Mon 10:34:00 AM 55.6403 -47.5578 233° Southwest  Level Estimated
Mon 10:35:00 AM 55.5680 -47.7245 233° Southwest  Level Estimated
Mon 10:36:00 AM 55.4954 -47.8906 232° Southwest  Level Estimated
Mon 10:37:00 AM 55.4226 -48.0560 232° Southwest  Level Estimated
Mon 10:38:00 AM 55.3495 -48.2209 232° Southwest  Level Estimated
Mon 10:38:13 AM 63.1667 -54.8167 231° Southwest 240 276 36,000  Level Gander Center
Mon 10:39:00 AM 55.2763 -48.3851 232° Southwest  Level Estimated
Mon 10:39:13 AM 63.1167 -55.0500 245° Southwest 390 449 36,000  Level Gander Center
Mon 10:40:00 AM 55.2028 -48.5488 232° Southwest  Level Estimated
Mon 10:40:13 AM 63.0667 -55.3167 248° West 430 495 36,000  Level Gander Center
Mon 10:41:00 AM 55.1291 -48.7118 232° Southwest  Level Estimated
Mon 10:41:13 AM 63.0167 -55.5500 245° Southwest 440 506 36,000  Level Gander Center
Mon 10:42:00 AM 55.0552 -48.8742 232° Southwest  Level Estimated
Mon 10:42:13 AM 62.9667 -55.7833 245° Southwest 440 506 36,000  Level Gander Center
Mon 10:43:00 AM 54.9813 -49.0357 231° Southwest  Level Estimated
Mon 10:43:13 AM 62.9000 -56.0167 238° Southwest 440 506 36,000  Level Gander Center
Mon 10:44:13 AM 62.8500 -56.2333 243° Southwest 440 506 36,000  Level Gander Center
Mon 10:45:13 AM 62.8000 -56.4667 245° Southwest 440 506 36,000  Level Gander Center
Mon 10:46:13 AM 62.7333 -56.6833 236° Southwest 430 495 36,000  Level Gander Center
Mon 10:47:13 AM 62.6667 -56.9167 238° Southwest 430 495 36,000  Level Gander Center
Mon 10:48:13 AM 62.6167 -57.1667 247° West 430 495 36,000  Level Gander Center
Mon 10:49:13 AM 62.5500 -57.4000 238° Southwest 440 506 36,000  Level Gander Center
Mon 10:50:13 AM 62.5000 -57.6167 244° Southwest 420 483 36,000  Level Gander Center
Mon 10:51:13 AM 62.4333 -57.8500 238° Southwest 430 495 36,000  Level Gander Center
Mon 10:52:13 AM 62.3667 -58.0667 237° Southwest 430 495 36,000  Level Gander Center
Mon 10:53:13 AM 62.3167 -58.2833 244° Southwest 430 495 36,000  Level Gander Center
Mon 10:54:13 AM 62.2667 -58.4667 240° Southwest 420 483 36,000  Level Gander Center
Mon 10:55:13 AM 62.2000 -58.7167 240° Southwest 420 483 36,000  Level Gander Center
Mon 10:56:12 AM 62.1167 -58.9167 228° Southwest 380 437 36,000  Level Montreal Center
Mon 10:57:12 AM 62.0667 -59.1167 242° Southwest 430 495 36,000  Level Montreal Center
Mon 10:58:12 AM 62.0000 -59.3333 237° Southwest 430 495 36,000  Level Montreal Center
Mon 10:59:12 AM 61.9500 -59.5500 244° Southwest 430 495 36,000  Level Montreal Center
Mon 11:00:12 AM 61.8833 -59.7667 237° Southwest 430 495 36,000  Level Montreal Center
Mon 11:01:12 AM 61.8000 -59.9833 231° Southwest 440 506 36,000  Level Montreal Center
Mon 11:02:12 AM 61.7333 -60.1667 233° Southwest 430 495 36,000  Level Montreal Center
Mon 11:03:12 AM 61.6833 -60.4167 247° West 430 495 36,000  Level Montreal Center
Mon 11:04:12 AM 61.6167 -60.6333 237° Southwest 430 495 36,000  Level Montreal Center
Mon 11:05:12 AM 61.5500 -60.8333 235° Southwest 430 495 36,000  Level Montreal Center
Mon 11:06:12 AM 61.4833 -61.0500 237° Southwest 430 495 36,000  Level Montreal Center
Mon 11:07:12 AM 61.4167 -61.2667 237° Southwest 430 495 36,000  Level Montreal Center
Mon 11:08:12 AM 61.3500 -61.4667 235° Southwest 430 495 36,000  Level Montreal Center
Mon 11:09:12 AM 61.2833 -61.6333 230° Southwest 430 495 36,000  Level Montreal Center
Mon 11:10:12 AM 61.2167 -61.8500 237° Southwest 430 495 36,000  Level Montreal Center
Mon 11:11:12 AM 61.1500 -62.0500 235° Southwest 430 495 36,000  Level Montreal Center
Mon 11:12:12 AM 61.0833 -62.2500 235° Southwest 430 495 36,000  Level Montreal Center
Mon 11:13:12 AM 61.0167 -62.4667 238° Southwest 430 495 36,000  Level Montreal Center
Mon 11:14:12 AM 60.9500 -62.6667 236° Southwest 420 483 36,000  Level Montreal Center
Mon 11:15:12 AM 60.9000 -62.8667 243° Southwest 430 495 36,000  Level Montreal Center
Mon 11:16:13 AM 60.8167 -63.1167 236° Southwest 420 483 36,000  Level Gander Center
Mon 11:17:12 AM 60.7500 -63.2667 228° Southwest 430 495 36,000  Level Montreal Center
Mon 11:18:12 AM 60.6833 -63.4667 236° Southwest 430 495 36,000  Level Montreal Center
Mon 11:19:13 AM 60.6167 -63.7167 242° Southwest 430 495 36,000  Level Gander Center
Mon 11:20:13 AM 60.5333 -63.9167 230° Southwest 430 495 36,000  Level Gander Center
Mon 11:21:13 AM 60.4667 -64.1167 236° Southwest 430 495 36,000  Level Gander Center
Mon 11:22:12 AM 60.4000 -64.2667 228° Southwest 430 495 36,000  Level Montreal Center
Mon 11:23:12 AM 60.3333 -64.4500 234° Southwest 420 483 36,000  Level Montreal Center
Mon 11:24:12 AM 60.2500 -64.5833 218° Southwest 420 483 36,000  Level Montreal Center
Mon 11:25:12 AM 60.1667 -64.7500 225° Southwest 420 483 36,000  Level Montreal Center
Mon 11:26:12 AM 60.0500 -64.9333 218° Southwest 420 483 36,000  Level Montreal Center
Mon 11:27:12 AM 59.9667 -65.0500 215° Southwest 420 483 36,000  Level Montreal Center
Mon 11:28:12 AM 59.8833 -65.2167 225° Southwest 420 483 36,000  Level Montreal Center
Mon 11:29:12 AM 59.7833 -65.3833 220° Southwest 420 483 36,000  Level Montreal Center
Mon 11:30:12 AM 59.7000 -65.5167 219° Southwest 420 483 36,000  Level Montreal Center
Mon 11:31:12 AM 59.6167 -65.6667 222° Southwest 420 483 36,000  Level Montreal Center
Mon 11:32:12 AM 59.5333 -65.8333 225° Southwest 420 483 36,000  Level Montreal Center
Mon 11:33:12 AM 59.4500 -65.9500 215° Southwest 420 483 36,000  Level Montreal Center
Mon 11:34:12 AM 59.3500 -66.1167 220° Southwest 420 483 36,000  Level Montreal Center
Mon 11:35:12 AM 59.2667 -66.2667 223° Southwest 420 483 36,000  Level Montreal Center
Mon 11:36:12 AM 59.1667 -66.4000 214° Southwest 420 483 36,000  Level Montreal Center
Mon 11:37:12 AM 59.0833 -66.5500 223° Southwest 410 472 36,000  Level Montreal Center
Mon 11:38:12 AM 58.9833 -66.6833 215° Southwest 420 483 36,000  Level Montreal Center
Mon 11:39:12 AM 58.9000 -66.8333 223° Southwest 420 483 36,000  Level Montreal Center
Mon 11:40:12 AM 58.8000 -66.9833 218° Southwest 420 483 36,000  Level Montreal Center
Mon 11:41:12 AM 58.7167 -67.1333 223° Southwest 420 483 36,000  Level Montreal Center
Mon 11:42:12 AM 58.6167 -67.2667 215° Southwest 420 483 36,000  Level Montreal Center
Mon 11:43:12 AM 58.5333 -67.4167 223° Southwest 420 483 36,000  Level Montreal Center
Mon 11:44:12 AM 58.4500 -67.5333 216° Southwest 410 472 36,000  Level Montreal Center
Mon 11:45:12 AM 58.3667 -67.6833 223° Southwest 410 472 36,000  Level Montreal Center
Mon 11:46:12 AM 58.2667 -67.8333 218° Southwest 410 472 36,000  Level Montreal Center
Mon 11:47:12 AM 58.1667 -67.9500 212° Southwest 410 472 36,000  Level Montreal Center
Mon 11:48:12 AM 58.0833 -68.1000 224° Southwest 410 472 36,000  Level Montreal Center
Mon 11:49:12 AM 57.9833 -68.2167 212° Southwest 410 472 36,000  Level Montreal Center
Mon 11:50:12 AM 57.9167 -68.3500 227° Southwest 410 472 36,000  Level Montreal Center
Mon 11:51:12 AM 57.8167 -68.4667 212° Southwest 410 472 36,000  Level Montreal Center
Mon 11:52:12 AM 57.7167 -68.6167 219° Southwest 420 483 36,000  Level Montreal Center
Mon 11:53:12 AM 57.6333 -68.7500 221° Southwest 420 483 36,000  Level Montreal Center
Mon 11:54:12 AM 57.5333 -68.8667 212° Southwest 420 483 36,000  Level Montreal Center
Mon 11:55:12 AM 57.4500 -69.0167 224° Southwest 420 483 36,000  Level Montreal Center
Mon 11:56:12 AM 57.3500 -69.1500 216° Southwest 420 483 36,000  Level Montreal Center
Mon 11:57:12 AM 57.2500 -69.2667 212° Southwest 420 483 36,000  Level Montreal Center
Mon 11:58:12 AM 57.1833 -69.4000 227° Southwest 420 483 36,000  Level Montreal Center
Mon 11:59:12 AM 57.0667 -69.5500 215° Southwest 420 483 36,000  Level Montreal Center
Mon 12:00:12 PM 56.9667 -69.6667 212° Southwest 410 472 36,000  Level Montreal Center
Mon 12:01:12 PM 56.9000 -69.8000 228° Southwest 410 472 36,000  Level Montreal Center
Mon 12:02:12 PM 56.8000 -69.9000 209° Southwest 420 483 36,000  Level Montreal Center
Mon 12:03:12 PM 56.6833 -70.0167 209° Southwest 420 483 36,000  Level Montreal Center
Mon 12:04:12 PM 56.5833 -70.1500 216° Southwest 410 472 36,000  Level Montreal Center
Mon 12:05:12 PM 56.5000 -70.2500 214° Southwest 410 472 36,000  Level Montreal Center
Mon 12:06:12 PM 56.4000 -70.3667 213° Southwest 410 472 36,000  Level Montreal Center
Mon 12:07:12 PM 56.3000 -70.4667 209° Southwest 410 472 36,000  Level Montreal Center
Mon 12:08:12 PM 56.2000 -70.5667 209° Southwest 420 483 36,000  Level Montreal Center
Mon 12:09:12 PM 56.1000 -70.7000 217° Southwest 410 472 36,000  Level Montreal Center
Mon 12:10:12 PM 56.0167 -70.8167 218° Southwest 420 483 36,000  Level Montreal Center
Mon 12:11:12 PM 55.9000 -70.9167 206° Southwest 420 483 36,000  Level Montreal Center
Mon 12:12:12 PM 55.8000 -71.0167 209° Southwest 420 483 36,000  Level Montreal Center
Mon 12:13:12 PM 55.7000 -71.1167 209° Southwest 420 483 36,000  Level Montreal Center
Mon 12:14:12 PM 55.6000 -71.2167 209° Southwest 410 472 36,000  Level Montreal Center
Mon 12:15:12 PM 55.5000 -71.3167 210° Southwest 410 472 36,000  Level Montreal Center
Mon 12:16:12 PM 55.4000 -71.4500 217° Southwest 420 483 36,000  Level Montreal Center
Mon 12:17:12 PM 55.3000 -71.5500 210° Southwest 420 483 36,000  Level Montreal Center
Mon 12:18:12 PM 55.2000 -71.6500 210° Southwest 420 483 36,000  Level Montreal Center
Mon 12:19:12 PM 55.1000 -71.7500 210° Southwest 420 483 36,000  Level Montreal Center
Mon 12:20:12 PM 55.0000 -71.8500 210° Southwest 420 483 36,000  Level Montreal Center
Mon 12:21:12 PM 54.9000 -71.9833 217° Southwest 420 483 36,000  Level Montreal Center
Mon 12:22:12 PM 54.8000 -72.0833 210° Southwest 420 483 36,000  Level Montreal Center
Mon 12:23:12 PM 54.7000 -72.1667 206° Southwest 430 495 36,000  Level Montreal Center
Mon 12:24:12 PM 54.6000 -72.2667 210° Southwest 430 495 36,000  Level Montreal Center
Mon 12:25:12 PM 54.4833 -72.4000 214° Southwest 430 495 36,000  Level Montreal Center
Mon 12:26:12 PM 54.3833 -72.5000 210° Southwest 430 495 36,000  Level Montreal Center
Mon 12:27:12 PM 54.2833 -72.5833 206° Southwest 420 483 36,000  Level Montreal Center
Mon 12:28:12 PM 54.1667 -72.7167 214° Southwest 430 495 36,000  Level Montreal Center
Mon 12:29:12 PM 54.0667 -72.8000 206° Southwest 430 495 36,000  Level Montreal Center
Mon 12:31:12 PM 53.8667 -73.0167 213° Southwest 420 483 36,000  Level Montreal Center
Mon 12:32:12 PM 53.7667 -73.1167 211° Southwest 420 483 36,000  Level Montreal Center
Mon 12:33:12 PM 53.6667 -73.2000 206° Southwest 430 495 36,000  Level Montreal Center
Mon 12:34:12 PM 53.5667 -73.3000 211° Southwest 430 495 36,000  Level Montreal Center
Mon 12:35:12 PM 53.4500 -73.4167 211° Southwest 430 495 36,000  Level Montreal Center
Mon 12:36:12 PM 53.3500 -73.5167 211° Southwest 420 483 36,000  Level Montreal Center
Mon 12:37:12 PM 53.2500 -73.6000 207° Southwest 420 483 36,000  Level Montreal Center
Mon 12:38:12 PM 53.1500 -73.6833 207° Southwest 430 495 36,000  Level Montreal Center
Mon 12:39:12 PM 53.0333 -73.8000 211° Southwest 430 495 36,000  Level Montreal Center
Mon 12:40:12 PM 52.9333 -73.9000 211° Southwest 430 495 36,000  Level Montreal Center
Mon 12:41:12 PM 52.8333 -73.9833 207° Southwest 420 483 36,000  Level Montreal Center
Mon 12:42:12 PM 52.7333 -74.0667 207° Southwest 430 495 36,000  Level Montreal Center
Mon 12:43:12 PM 52.6167 -74.1833 211° Southwest 430 495 36,000  Level Montreal Center
Mon 12:45:12 PM 52.4000 -74.3667 207° Southwest 420 483 36,000  Level Montreal Center
Mon 12:46:12 PM 52.3167 -74.4500 211° Southwest 420 483 36,000  Level Montreal Center
Mon 12:47:12 PM 52.2000 -74.5667 212° Southwest 420 483 36,000  Level Montreal Center
Mon 12:48:12 PM 52.1000 -74.6500 207° Southwest 420 483 36,000  Level Montreal Center
Mon 12:49:12 PM 51.9833 -74.7667 212° Southwest 450 518 36,000  Level Montreal Center
Mon 12:50:12 PM 51.8833 -74.8500 207° Southwest 420 483 36,000  Level Montreal Center
Mon 12:51:12 PM 51.7833 -74.9333 207° Southwest 420 483 36,000  Level Montreal Center
Mon 12:52:12 PM 51.6833 -75.0167 207° Southwest 420 483 36,000  Level Montreal Center
Mon 12:53:12 PM 51.5833 -75.1000 207° Southwest 420 483 36,000  Level Montreal Center
Mon 12:54:12 PM 51.4667 -75.2000 208° Southwest 420 483 36,000  Level Montreal Center
Mon 12:55:12 PM 51.3667 -75.2833 207° Southwest 420 483 36,000  Level Montreal Center
Mon 12:56:12 PM 51.2667 -75.3667 208° Southwest 420 483 36,000  Level Montreal Center
Mon 12:57:12 PM 51.1667 -75.4500 208° Southwest 420 483 36,000  Level Montreal Center
Mon 12:58:12 PM 51.0667 -75.5333 208° Southwest 420 483 36,000  Level Montreal Center
Mon 12:59:12 PM 50.9667 -75.6500 216° Southwest 420 483 36,000  Level Montreal Center
Mon 01:00:12 PM 50.8500 -75.7333 204° Southwest 420 483 36,000  Level Montreal Center
Mon 01:01:12 PM 50.7500 -75.8000 203° Southwest 420 483 36,000  Level Montreal Center
Mon 01:02:12 PM 50.6500 -75.8833 208° Southwest 420 483 36,000  Level Montreal Center
Mon 01:03:12 PM 50.5333 -76.0000 212° Southwest 430 495 36,000  Level Montreal Center
Mon 01:04:12 PM 50.4333 -76.0667 203° Southwest 420 483 36,000  Level Montreal Center
Mon 01:05:12 PM 50.3333 -76.1500 208° Southwest 420 483 36,000  Level Montreal Center
Mon 01:06:12 PM 50.2333 -76.2333 208° Southwest 420 483 36,000  Level Montreal Center
Mon 01:07:12 PM 50.1167 -76.3333 209° Southwest 420 483 36,000  Level Montreal Center
Mon 01:08:12 PM 50.0000 -76.4167 205° Southwest 420 483 36,000  Level Montreal Center
Mon 01:09:12 PM 49.9000 -76.4833 203° Southwest 420 483 36,000  Level Montreal Center
Mon 01:10:12 PM 49.8000 -76.5667 208° Southwest 420 483 36,000  Level Montreal Center
Mon 01:11:12 PM 49.7000 -76.6667 213° Southwest 420 483 36,000  Level Montreal Center
Mon 01:12:12 PM 49.5833 -76.7500 205° Southwest 420 483 36,000  Level Montreal Center
Mon 01:13:12 PM 49.4833 -76.8167 203° Southwest 420 483 36,000  Level Montreal Center
Mon 01:14:13 PM 49.3667 -76.9000 205° Southwest 440 506 36,000  Level Montreal Center
Mon 01:15:13 PM 49.2833 -77.0000 218° Southwest 410 472 36,000  Level Montreal Center
Mon 01:16:13 PM 49.1667 -77.0667 200° South 420 483 36,000  Level Montreal Center
Mon 01:17:13 PM 49.0667 -77.1500 209° Southwest 420 483 36,000  Level Montreal Center
Mon 01:18:13 PM 48.9667 -77.2500 213° Southwest 420 483 36,000  Level Montreal Center
Mon 01:19:13 PM 48.8500 -77.3167 201° Southwest 420 483 36,000  Level Montreal Center
Mon 01:20:13 PM 48.7333 -77.4000 205° Southwest 410 472 36,000  Level Montreal Center
Mon 01:21:13 PM 48.6333 -77.4667 204° Southwest 420 483 36,000  Level Montreal Center
Mon 01:22:13 PM 48.5333 -77.5333 204° Southwest 420 483 36,000  Level Montreal Center
Mon 01:23:13 PM 48.4333 -77.6333 214° Southwest 420 483 36,000  Level Montreal Center
Mon 01:24:13 PM 48.3333 -77.7167 209° Southwest 420 483 36,000  Level Montreal Center
Mon 01:25:13 PM 48.2333 -77.7833 204° Southwest 410 472 36,000  Level Montreal Center
Mon 01:26:13 PM 48.1333 -77.8500 204° Southwest 410 472 36,000  Level Montreal Center
Mon 01:27:13 PM 48.0167 -77.9333 206° Southwest 420 483 36,000  Level Montreal Center
Mon 01:28:13 PM 47.9000 -77.9667 191° South 420 483 36,000  Level Montreal Center
Mon 01:29:13 PM 47.8000 -78.0500 209° Southwest 420 483 36,000  Level Montreal Center
Mon 01:30:13 PM 47.6833 -78.1167 201° Southwest 420 483 36,000  Level Montreal Center
Mon 01:31:13 PM 47.5833 -78.1500 193° South 420 483 36,000  Level Montreal Center
Mon 01:32:13 PM 47.4667 -78.2333 206° Southwest 420 483 36,000  Level Montreal Center
Mon 01:33:13 PM 47.3667 -78.3000 204° Southwest 420 483 36,000  Level Montreal Center
Mon 01:34:13 PM 47.2500 -78.3667 201° Southwest 420 483 36,000  Level Montreal Center
Mon 01:35:13 PM 47.1500 -78.4167 199° South 410 472 36,000  Level Montreal Center
Mon 01:36:13 PM 47.0333 -78.4833 201° Southwest 410 472 36,000  Level Montreal Center
Mon 01:37:13 PM 46.9333 -78.5500 204° Southwest 410 472 36,000  Level Montreal Center
Mon 01:38:13 PM 46.8167 -78.5833 191° South 410 472 36,000  Level Montreal Center
Mon 01:39:12 PM 46.7167 -78.6667 210° Southwest 410 472 36,000  Level Montreal Center
Mon 01:40:12 PM 46.6167 -78.7333 205° Southwest 410 472 36,000  Level Montreal Center
Mon 01:41:12 PM 46.5167 -78.7667 193° South 400 460 36,000  Level Montreal Center
Mon 01:42:12 PM 46.4000 -78.8333 202° Southwest 410 472 36,000  Level Montreal Center
Mon 01:43:12 PM 46.3000 -78.8833 199° South 410 472 36,000  Level Montreal Center
Mon 01:44:13 PM 46.1833 -78.9333 197° South 410 472 36,000  Level Toronto Center
Mon 01:45:13 PM 46.0833 -78.9833 199° South 410 472 36,000  Level Toronto Center
Mon 01:46:13 PM 45.9667 -79.0333 197° South 410 472 36,000  Level Toronto Center
Mon 01:47:13 PM 45.8667 -79.1000 205° Southwest 420 483 36,000  Level Toronto Center
Mon 01:48:13 PM 45.7500 -79.1500 197° South 420 483 36,000  Level Toronto Center
Mon 01:49:13 PM 45.6500 -79.2000 199° South 420 483 36,000  Level Toronto Center
Mon 01:50:13 PM 45.5333 -79.2833 207° Southwest 410 472 36,000  Level Toronto Center
Mon 01:51:13 PM 45.4333 -79.3167 193° South 410 472 36,000  Level Toronto Center
Mon 01:52:13 PM 45.3167 -79.3667 197° South 410 472 36,000  Level Toronto Center
Mon 01:53:13 PM 45.2167 -79.4500 210° Southwest 410 472 36,000  Level Toronto Center
Mon 01:54:13 PM 45.1000 -79.4833 191° South 410 472 36,000  Level Toronto Center
Mon 01:55:13 PM 45.0000 -79.5667 211° Southwest 410 472 36,000  Level Toronto Center
Mon 01:56:13 PM 44.8833 -79.6167 197° South 410 472 36,000  Level Toronto Center
Mon 01:57:13 PM 44.7833 -79.6500 193° South 410 472 36,000  Level Toronto Center
Mon 01:58:13 PM 44.6833 -79.7333 211° Southwest 410 472 36,000  Level Toronto Center
Mon 02:04:38 PM 44.0794 -80.2437 211° Southwest 393 452 36,000  Level FlightAware ADS-B (EHTX)
Mon 02:05:17 PM 44.0193 -80.2971 213° Southwest 394 453 36,000  Level FlightAware ADS-B (EHTX)
Mon 02:05:54 PM 43.9663 -80.3440 212° Southwest 394 453 36,000  Level FlightAware ADS-B
Mon 02:06:27 PM 43.9334 -80.3728 212° Southwest 393 452 36,000  Level FlightAware ADS-B (EHLW)
Mon 02:07:06 PM 43.8608 -80.4368 212° Southwest 393 452 36,000  Level FlightAware ADS-B (EHLW)
Mon 02:07:38 PM 43.8024 -80.4881 212° Southwest 393 452 36,000  Level FlightAware ADS-B (EHTX)
Mon 02:08:27 PM 43.7298 -80.5519 212° Southwest 394 453 36,000  Level FlightAware ADS-B
Mon 02:08:58 PM 43.6812 -80.5943 212° Southwest 394 453 36,000  Level FlightAware ADS-B
Mon 02:09:38 PM 43.6287 -80.6401 212° Southwest 395 455 36,000  Level FlightAware ADS-B (EHTX)
Mon 02:10:17 PM 43.5582 -80.7012 212° Southwest 395 455 36,000  Level FlightAware ADS-B (EHTX)
Mon 02:10:57 PM 43.5094 -80.7436 212° Southwest 397 457 36,000  Level FlightAware ADS-B (EHTX)
Mon 02:11:38 PM 43.4339 -80.8092 212° Southwest 397 457 36,000  Level FlightAware ADS-B (EHTX)
Mon 02:12:18 PM 43.3710 -80.8636 212° Southwest 397 457 36,000  Level FlightAware ADS-B (EHTX)
Mon 02:12:57 PM 43.3126 -80.9138 212° Southwest 397 457 36,000  Level FlightAware ADS-B (EHTX)
Mon 02:13:39 PM 43.2581 -80.9607 212° Southwest 395 455 36,000  Level FlightAware ADS-B (EHTX)
Mon 02:14:18 PM 43.1889 -81.0200 212° Southwest 393 452 36,000  Level FlightAware ADS-B (EHTX)
Mon 02:14:58 PM 43.1239 -81.0757 212° Southwest 393 452 36,000  Level FlightAware ADS-B (EHTX)
Mon 02:15:38 PM 43.0624 -81.1282 212° Southwest 394 453 36,000  Level FlightAware ADS-B (EHTX)
Mon 02:16:18 PM 42.9985 -81.1726 207° Southwest 403 464 36,000  Level FlightAware ADS-B (EHTX)
Mon 02:16:59 PM 42.9288 -81.2160 205° Southwest 399 459 36,000  Level FlightAware ADS-B (EHTX)
Mon 02:17:37 PM 42.8666 -81.2550 205° Southwest 399 459 36,000  Level FlightAware ADS-B (EHTX)
Mon 02:18:18 PM 42.7949 -81.2993 204° Southwest 400 460 36,000  Level FlightAware ADS-B (EHTX)
Mon 02:18:59 PM 42.7295 -81.3363 203° Southwest 408 470 36,000  Level FlightAware ADS-B (EHTX)
Mon 02:19:38 PM 42.6552 -81.3724 200° South 405 466 36,000  Level FlightAware ADS-B (EHTX)
Mon 02:20:16 PM 42.5995 -81.3999 200° South 404 465 36,000  Level FlightAware ADS-B (EHTX)
Mon 02:20:54 PM 42.5474 -81.4262 200° South 402 463 36,000  Level FlightAware ADS-B (EHTX)
Mon 02:21:36 PM 42.4485 -81.4760 200° South 400 460 36,000  Level FlightAware ADS-B (EHTX)
Mon 02:22:18 PM 42.3832 -81.5088 200° South 399 459 36,000  Level FlightAware ADS-B (EHTX)
Mon 02:22:59 PM 42.3116 -81.5447 200° South 399 459 36,000  Level FlightAware ADS-B (EHTX)
Mon 02:23:46 PM 42.2428 -81.5783 200° South 399 459 36,000  Level Cleveland Center
Mon 02:24:48 PM 42.1214 -81.6394 200° South 396 456 36,000  Level Cleveland Center
Mon 02:25:50 PM 42.0169 -81.6906 200° South 396 456 36,000  Level Cleveland Center
Mon 02:26:52 PM 41.9122 -81.7431 200° South 398 458 36,000  Level Cleveland Center
Mon 02:27:54 PM 41.8083 -81.7936 200° South 395 455 36,000  Level Cleveland Center
Mon 02:28:56 PM 41.7036 -81.8442 200° South 398 458 36,000  Level Cleveland Center
Mon 02:29:58 PM 41.5992 -81.8964 201° Southwest 397 457 36,000  Level Cleveland Center
Mon 02:31:00 PM 41.4947 -81.9472 200° South 399 459 36,000  Level Cleveland Center
Mon 02:32:02 PM 41.3808 -82.0028 200° South 395 455 36,000  Level Cleveland Center
Mon 02:33:03 PM 41.2786 -82.0514 200° South 392 451 36,000  Level Cleveland Center
Mon 02:34:05 PM 41.1633 -82.1081 200° South 394 453 36,000  Level Cleveland Center
Mon 02:35:07 PM 41.0644 -82.1553 200° South 397 457 36,000  Level Cleveland Center
Mon 02:40:59 PM 40.4390 -82.4535 200° South 395 455 36,000  Level FlightAware ADS-B
Mon 02:42:12 PM 40.3156 -82.5115 200° South 391 450 36,000  Level FlightAware ADS-B
Mon 02:42:45 PM 40.2593 -82.5378 200° South 387 445 36,000  Level FlightAware ADS-B
Mon 02:43:27 PM 40.1933 -82.5681 199° South 391 450 36,000  Level FlightAware ADS-B
Mon 02:44:11 PM 40.1102 -82.5893 191° South 403 464 36,000  Level FlightAware ADS-B
Mon 02:44:48 PM 40.0397 -82.5950 183° South 408 470 36,000  Level FlightAware ADS-B
Mon 02:45:30 PM 39.9598 -82.6013 183° South 408 470 36,000  Level FlightAware ADS-B
Mon 02:46:11 PM 39.9165 -82.6044 183° South 405 466 36,000  Level FlightAware ADS-B
Mon 02:46:43 PM 39.8239 -82.6107 183° South 402 463 36,000  Level FlightAware ADS-B
Mon 02:50:19 PM 39.4341 -82.6368 183° South 398 458 36,000  Level FlightAware ADS-B
Mon 02:54:40 PM 38.9577 -82.6685 183° South 387 445 36,000  Level FlightAware ADS-B
Mon 02:55:40 PM 38.8540 -82.6753 183° South 383 441 36,000  Level FlightAware ADS-B
Mon 02:56:20 PM 38.7880 -82.6796 183° South 383 441 36,000  Level FlightAware ADS-B
Mon 02:56:52 PM 38.7417 -82.6825 183° South 381 438 36,000  Level Indianapolis Center
Mon 02:57:54 PM 38.6306 -82.6889 183° South 380 437 36,000  Level Indianapolis Center
Mon 02:58:56 PM 38.5264 -82.6956 183° South 375 432 36,000  Level Indianapolis Center
Mon 02:59:57 PM 38.4047 -82.7036 183° South 375 432 36,000  Level Indianapolis Center
Mon 03:00:59 PM 38.3003 -82.7108 183° South 374 430 36,000  Level Indianapolis Center
Mon 03:02:01 PM 38.1972 -82.7178 183° South 370 426 36,000  Level Indianapolis Center
Mon 03:03:03 PM 38.0947 -82.7250 183° South 369 425 36,000  Level Indianapolis Center
Mon 03:04:05 PM 37.9925 -82.7306 182° South 366 421 36,000  Level Indianapolis Center
Mon 03:05:06 PM 37.8897 -82.7375 183° South 368 423 36,000  Level Indianapolis Center
Mon 03:06:08 PM 37.7872 -82.7450 183° South 369 425 36,000  Level Indianapolis Center
Mon 03:07:10 PM 37.6717 -82.7644 188° South 361 415 36,000  Level Indianapolis Center
Mon 03:08:12 PM 37.5861 -82.8108 203° Southwest 336 387 36,000  Level Indianapolis Center
Mon 03:09:13 PM 37.5064 -82.8658 209° Southwest 328 377 36,000  Level Indianapolis Center
Mon 03:10:15 PM 37.4244 -82.9181 207° Southwest 330 380 36,000  Level Indianapolis Center
Mon 03:11:17 PM 37.3439 -82.9722 208° Southwest 329 379 36,000  Level Indianapolis Center
Mon 03:12:19 PM 37.2628 -83.0247 207° Southwest 328 377 36,000  Level Indianapolis Center
Mon 03:13:20 PM 37.1700 -83.0856 208° Southwest 325 374 36,000  Level Indianapolis Center
Mon 03:14:22 PM 37.0897 -83.1367 207° Southwest 326 375 36,000  Level Indianapolis Center
Mon 03:15:24 PM 37.0094 -83.1903 208° Southwest 328 377 36,000  Level Indianapolis Center
Mon 03:16:25 PM 36.9283 -83.2422 207° Southwest 328 377 36,000  Level Indianapolis Center
Mon 03:17:27 PM 36.8469 -83.2947 207° Southwest 329 379 36,000  Level Indianapolis Center
Mon 03:18:29 PM 36.7519 -83.3547 207° Southwest 330 380 36,000  Level Indianapolis Center
Mon 03:19:30 PM 36.6700 -83.4075 207° Southwest 331 381 36,000 -341 Level Indianapolis Center
Mon 03:20:32 PM 36.5881 -83.4603 207° Southwest 333 383 35,300 -484 Descending Indianapolis Center
Mon 03:21:34 PM 36.5083 -83.5106 207° Southwest 334 384 35,000 -145 Descending Indianapolis Center
Mon 03:22:36 PM 36.4281 -83.5639 208° Southwest 329 379 35,000  Level Indianapolis Center
Mon 03:23:37 PM 36.3289 -83.6267 207° Southwest 333 383 35,000  Level Indianapolis Center
Mon 03:24:39 PM 36.2467 -83.6783 207° Southwest 331 381 35,000  Level Indianapolis Center
Mon 03:25:41 PM 36.1636 -83.7314 207° Southwest 334 384 35,000  Level Indianapolis Center
Mon 03:26:39 PM 36.0808 -83.7844 207° Southwest 330 380 35,000  Level Atlanta Center
Mon 03:27:39 PM 35.9997 -83.8361 207° Southwest 330 380 35,000  Level Atlanta Center
Mon 03:28:39 PM 35.9142 -83.8875 206° Southwest 335 386 35,000  Level Atlanta Center
Mon 03:29:39 PM 35.8161 -83.9183 194° South 349 402 35,000  Level Atlanta Center
Mon 03:30:39 PM 35.7369 -83.9364 190° South 355 409 35,000  Level Atlanta Center
Mon 03:31:39 PM 35.6264 -83.9647 192° South 366 421 35,000  Level Atlanta Center
Mon 03:32:39 PM 35.5264 -83.9878 191° South 371 427 35,000  Level Atlanta Center
Mon 03:33:39 PM 35.4242 -84.0108 190° South 376 433 35,000  Level Atlanta Center
Mon 03:34:39 PM 35.3239 -84.0361 192° South 371 427 35,000  Level Atlanta Center
Mon 03:35:39 PM 35.2217 -84.0617 192° South 371 427 35,000  Level Atlanta Center
Mon 03:36:39 PM 35.1194 -84.0869 191° South 371 427 35,000 300 Level Atlanta Center
Mon 03:37:39 PM 35.0192 -84.1097 191° South 371 427 35,600 500 Climbing Atlanta Center
Mon 03:38:39 PM 34.9150 -84.1375 192° South 376 433 36,000 200 Climbing Atlanta Center
Mon 03:39:39 PM 34.8106 -84.1603 190° South 376 433 36,000  Level Atlanta Center
Mon 03:40:39 PM 34.7061 -84.1853 191° South 376 433 36,000  Level Atlanta Center
Mon 03:41:39 PM 34.5936 -84.2078 189° South 375 432 36,000  Level Atlanta Center
Mon 03:42:39 PM 34.4892 -84.2328 191° South 375 432 36,000  Level Atlanta Center
Mon 03:43:39 PM 34.3847 -84.2603 192° South 381 438 36,000  Level Atlanta Center
Mon 03:44:39 PM 34.2783 -84.2850 191° South 386 444 36,000  Level Atlanta Center
Mon 03:45:39 PM 34.1739 -84.3075 190° South 391 450 36,000  Level Atlanta Center
Mon 03:46:39 PM 34.0694 -84.3347 192° South 397 457 36,000  Level Atlanta Center
Mon 03:47:39 PM 33.9650 -84.3594 191° South 397 457 36,000  Level Atlanta Center
Mon 03:48:39 PM 33.8439 -84.3889 191° South 397 457 36,000 200 Level Atlanta Center
Mon 03:49:39 PM 33.7414 -84.4111 190° South 392 451 36,400 500 Climbing Atlanta Center
Mon 03:50:39 PM 33.6350 -84.4356 191° South 398 458 37,000 300 Climbing Atlanta Center
Mon 03:51:39 PM 33.5097 -84.4375 181° South 411 473 37,000  Level Atlanta Center
Mon 03:52:39 PM 33.3928 -84.4319 178° South 421 484 37,000  Level Atlanta Center
Mon 03:53:39 PM 33.2822 -84.4314 180° South 427 491 37,000  Level Atlanta Center
Mon 03:54:39 PM 33.1550 -84.4333 181° South 427 491 37,000  Level Atlanta Center
Mon 03:55:39 PM 33.0381 -84.4328 180° South 426 490 37,000  Level Atlanta Center
Mon 03:56:39 PM 32.9192 -84.4272 178° South 426 490 37,000  Level Atlanta Center
Mon 03:57:39 PM 32.7958 -84.4267 180° South 432 497 37,000  Level Atlanta Center
Mon 03:58:39 PM 32.6811 -84.4164 176° South 432 497 37,000  Level Atlanta Center
Mon 03:59:39 PM 32.5581 -84.4158 180° South 432 497 37,000  Level Atlanta Center
Mon 04:00:39 PM 32.4389 -84.4131 179° South 438 504 37,000  Level Atlanta Center
Mon 04:01:39 PM 32.3158 -84.4125 180° South 438 504 37,000  Level Atlanta Center
Mon 04:02:39 PM 32.1969 -84.4094 179° South 438 504 37,000  Level Atlanta Center
Mon 04:03:39 PM 32.0781 -84.4067 179° South 438 504 37,000  Level Atlanta Center
Mon 04:04:43 PM 31.9614 -84.4033 179° South 450 518 37,000  Level Jacksonville Center
Mon 04:10:07 PM 31.2946 -84.3885 179° South 435 501 37,000  Level FlightAware ADS-B
Mon 04:12:26 PM 31.1493 -84.3855 179° South 438 504 37,000  Level FlightAware ADS-B
Mon 04:13:37 PM 30.8726 -84.3802 179° South 440 506 37,000  Level FlightAware ADS-B (KONZ)
Mon 04:14:15 PM 30.8726 -84.3802 179° South 442 509 37,000  Level FlightAware ADS-B (KONZ)
Mon 04:14:46 PM 30.7317 -84.3774 179° South 442 509 37,000  Level FlightAware ADS-B
Mon 04:15:25 PM 30.6520 -84.3711 176° South 453 521 37,000  Level FlightAware ADS-B (KONZ)
Mon 04:16:05 PM 30.5727 -84.3532 169° South 466 536 37,000  Level FlightAware ADS-B (KONZ)
Mon 04:16:35 PM 30.5367 -84.3414 164° South 478 550 37,000  Level FlightAware ADS-B (KONZ)
Mon 04:17:06 PM 30.4525 -84.3032 159° South 485 558 37,000  Level FlightAware ADS-B
Mon 04:17:47 PM 30.3618 -84.2460 151° Southeast 489 563 37,000  Level FlightAware ADS-B
Mon 04:18:27 PM 30.2923 -84.2007 151° Southeast 489 563 37,000  Level FlightAware ADS-B
Mon 04:19:15 PM 30.2373 -84.1649 151° Southeast 488 562 37,000  Level FlightAware ADS-B
Mon 04:19:57 PM 30.1126 -84.0838 151° Southeast 489 563 37,000  Level FlightAware ADS-B
Mon 04:20:36 PM 30.0603 -84.0498 151° Southeast 490 564 37,000  Level FlightAware ADS-B
Mon 04:21:41 PM 29.8980 -83.9445 151° Southeast 493 567 37,000  Level FlightAware ADS-B (KONZ)
Mon 04:22:43 PM 29.7847 -83.8714 151° Southeast 493 567 37,000  Level Jacksonville Center
Mon 04:23:43 PM 29.6661 -83.7961 151° Southeast 493 567 37,000  Level Jacksonville Center
Mon 04:24:43 PM 29.5456 -83.7208 151° Southeast 493 567 37,000  Level Jacksonville Center
Mon 04:25:43 PM 29.4272 -83.6461 151° Southeast 493 567 37,000  Level Jacksonville Center
Mon 04:26:43 PM 29.3086 -83.5667 150° Southeast 493 567 37,000  Level Jacksonville Center
Mon 04:27:43 PM 29.1919 -83.4944 152° Southeast 493 567 37,000  Level Jacksonville Center
Mon 04:28:43 PM 29.0756 -83.4178 150° Southeast 488 562 37,000  Level Jacksonville Center
Mon 04:29:43 PM 28.9567 -83.3433 151° Southeast 488 562 37,000  Level Jacksonville Center
Mon 04:30:43 PM 28.8403 -83.2694 151° Southeast 482 555 37,000  Level Jacksonville Center
Mon 04:31:43 PM 28.7236 -83.1933 150° Southeast 482 555 37,000  Level Jacksonville Center
Mon 04:32:43 PM 28.6067 -83.1219 152° Southeast 482 555 37,000  Level Jacksonville Center
Mon 04:37:55 PM 27.9853 -82.7322 152° Southeast 487 560 37,000  Level FlightAware ADS-B
Mon 04:38:40 PM 27.9393 -82.7037 151° Southeast 487 560 37,000  Level FlightAware ADS-B
Mon 04:39:26 PM 27.8090 -82.6189 150° Southeast 490 564 37,000  Level FlightAware ADS-B
Mon 04:40:02 PM 27.7376 -82.5707 149° Southeast 490 564 37,000  Level FlightAware ADS-B
Mon 04:40:35 PM 27.6776 -82.5306 149° Southeast 491 565 37,000  Level FlightAware ADS-B
Mon 04:41:19 PM 27.5857 -82.4694 149° Southeast 491 565 37,000  Level FlightAware ADS-B
Mon 04:41:49 PM 27.5289 -82.4317 150° Southeast 491 565 37,000  Level FlightAware ADS-B
Mon 04:42:23 PM 27.4841 -82.4021 150° Southeast 492 566 37,000  Level FlightAware ADS-B
Mon 04:43:03 PM 27.3823 -82.3346 150° Southeast 491 565 37,000  Level FlightAware ADS-B
Mon 04:43:20 PM 27.3481 -82.3120 150° Southeast 491 565 37,000  Level FlightAware ADS-B
Mon 04:44:01 PM 27.2683 -82.2592 150° Southeast 488 562 37,000  Level FlightAware ADS-B
Mon 04:45:03 PM 27.1493 -82.1807 150° Southeast 488 562 37,000  Level FlightAware ADS-B
Mon 04:45:42 PM 27.0725 -82.1302 150° Southeast 489 563 37,000  Level FlightAware ADS-B
Mon 04:47:18 PM 26.8871 -82.0086 150° Southeast 487 560 37,000  Level FlightAware ADS-B
Mon 04:48:01 PM 26.8016 -81.9527 150° Southeast 488 562 37,000  Level FlightAware ADS-B
Mon 04:48:41 PM 26.7278 -81.9045 150° Southeast 489 563 37,000  Level FlightAware ADS-B
Mon 04:49:22 PM 26.6437 -81.8498 150° Southeast 491 565 37,000  Level FlightAware ADS-B
Mon 04:50:03 PM 26.5628 -81.7978 150° Southeast 492 566 37,000  Level FlightAware ADS-B
Mon 04:50:42 PM 26.4830 -81.7595 157° South 487 560 37,000  Level FlightAware ADS-B
Mon 04:51:22 PM 26.4363 -81.7419 161° South 487 560 37,000  Level FlightAware ADS-B
Mon 04:52:23 PM 26.2691 -81.6766 161° South 488 562 37,000  Level FlightAware ADS-B
Mon 04:54:00 PM 26.0638 -81.5991 161° South 490 564 37,000  Level FlightAware ADS-B
Mon 04:54:37 PM 25.9831 -81.5687 161° South 487 560 37,000  Level FlightAware ADS-B
Mon 04:55:22 PM 25.8848 -81.5317 161° South 486 559 37,000  Level FlightAware ADS-B
Mon 04:56:03 PM 25.7961 -81.4984 161° South 486 559 37,000  Level FlightAware ADS-B
Mon 04:56:43 PM 25.7102 -81.4662 161° South 489 563 37,000  Level FlightAware ADS-B
Mon 04:57:40 PM 25.5875 -81.4203 161° South 489 563 37,000  Level FlightAware ADS-B
Mon 04:58:48 PM 25.4489 -81.3711 161° South 496 571 37,000 -234 Level Miami Center
Mon 04:59:48 PM 25.3183 -81.3456 170° South 489 563 36,500 -750 Descending Miami Center
Mon 05:00:48 PM 25.2058 -81.4033 205° Southwest 448 516 35,500 -1,000 Descending Miami Center
Mon 05:01:48 PM 25.1111 -81.4939 221° Southwest 427 491 34,500 -1,000 Descending Miami Center
Mon 05:02:48 PM 25.0206 -81.5844 222° Southwest 438 504 33,500 -1,000 Descending Miami Center
Mon 05:03:48 PM 24.9281 -81.6703 220° Southwest 445 512 32,500 -950 Descending Miami Center
Mon 05:04:48 PM 24.8461 -81.7472 220° Southwest 436 502 31,600 -950 Descending Miami Center
Mon 05:05:48 PM 24.7575 -81.8328 221° Southwest 431 496 30,600 -1,050 Descending Miami Center
Mon 05:06:48 PM 24.6564 -81.9200 218° Southwest 426 490 29,500 -1,000 Descending Miami Center
Mon 05:07:48 PM 24.5725 -81.9967 220° Southwest 414 476 28,600 -950 Descending Miami Center
Mon 05:08:48 PM 24.4861 -82.0728 219° Southwest 403 464 27,600 -900 Descending Miami Center
Mon 05:09:48 PM 24.4042 -82.1536 222° Southwest 403 464 26,800 -850 Descending Miami Center
Mon 05:10:48 PM 24.3200 -82.2253 218° Southwest 398 458 25,900 -900 Descending Miami Center
Mon 05:11:48 PM 24.2422 -82.3017 222° Southwest 393 452 25,000 -900 Descending Miami Center
Mon 05:13:00 PM 24.1055 -82.3135 230° Southwest  Level Estimated
Mon 05:20:00 PM 23.3822 -82.4332 175° South  Level FlightAware Approximate
Mon 05:21:00 PM 23.2684 -82.4218 175° South  Level FlightAware Approximate
Mon 05:22:00 PM 23.1543 -82.4167 180° South  Level FlightAware Approximate
Mon 05:23:00 PM 23.0415 -82.4000 180° South  Level FlightAware Approximate
Mon 05:24:00 PM 22.9891 -82.4091 180° South  Level Estimated
Mon 05:25:00 PM 22.9891 -82.4091 180° South  Level Estimated
Mon 05:26:00 PM 22.9891 -82.4091 180° South  Level Estimated
Mon 05:27:00 PM 22.9891 -82.4091 180° South  Level Estimated
Mon 05:28:00 PM 22.9891 -82.4091 180° South  Level Estimated
Mon 05:29:00 PM 22.9891 -82.4091 180° South  Level Estimated
Mon 05:30:00 PM 22.9891 -82.4091 180° South  Level Estimated
Mon 05:31:00 PM 22.9891 -82.4091 180° South  Level Estimated
Mon 05:32:00 PM 22.9891 -82.4091 180° South  Level Estimated
Mon 05:33:00 PM 22.9891 -82.4091 180° South  Level Estimated
Mon 05:34:00 PM 22.9891 -82.4091 180° South  Level Estimated
Mon 05:35:00 PM 22.9891 -82.4091 180° South  Level Estimated
Mon 05:36:00 PM 22.9891 -82.4091 180° South  Level Estimated
Mon 05:37:00 PM 22.9891 -82.4091 180° South  Level Estimated
Mon 05:38:00 PM 22.9891 -82.4091 180° South  Level Estimated
Mon 05:39:00 PM 22.9891 -82.4091 180° South  Level Estimated
Mon 05:40:00 PM 22.9891 -82.4091 180° South  Level Estimated
Mon 05:41:00 PM 22.9891 -82.4091 180° South  Level Estimated
Mon 05:42:00 PM 22.9891 -82.4091 180° South  Level Estimated
Mon 05:43:00 PM 22.9891 -82.4091 180° South  Level Estimated
Mon 05:44:00 PM 22.9891 -82.4091 180° South  Level Estimated
Mon 05:45:00 PM 22.9891 -82.4091 180° South  Level Estimated
Mon 05:46:00 PM 22.9891 -82.4091 180° South  Level Estimated
Mon 05:47:00 PM 22.9891 -82.4091 180° South  Level Estimated
Mon 05:48:00 PM 22.9891 -82.4091 180° South  Level Estimated

Login

Don't have an account? Register now (free) for customized features, flight alerts, and more!